sensor_id;sensor_type;location;lat;lon;timestamp;P1;durP1;ratioP1;P2;durP2;ratioP2
12790;SDS011;6459;42.678;23.310;2022-07-25T00:02:22;11.50;;;10.30;;
12790;SDS011;6459;42.678;23.310;2022-07-25T00:04:52;12.13;;;10.40;;
12790;SDS011;6459;42.678;23.310;2022-07-25T00:07:21;10.83;;;9.73;;
12790;SDS011;6459;42.678;23.310;2022-07-25T00:09:49;12.00;;;10.80;;
12790;SDS011;6459;42.678;23.310;2022-07-25T00:12:18;11.17;;;10.07;;
12790;SDS011;6459;42.678;23.310;2022-07-25T00:14:46;15.07;;;10.50;;
12790;SDS011;6459;42.678;23.310;2022-07-25T00:17:14;11.40;;;10.20;;
12790;SDS011;6459;42.678;23.310;2022-07-25T00:19:43;11.83;;;9.90;;
12790;SDS011;6459;42.678;23.310;2022-07-25T00:22:12;13.13;;;10.50;;
12790;SDS011;6459;42.678;23.310;2022-07-25T00:24:42;11.90;;;10.03;;
12790;SDS011;6459;42.678;23.310;2022-07-25T00:27:11;13.40;;;11.30;;
12790;SDS011;6459;42.678;23.310;2022-07-25T00:29:39;15.83;;;10.67;;
12790;SDS011;6459;42.678;23.310;2022-07-25T00:32:07;11.23;;;9.37;;
12790;SDS011;6459;42.678;23.310;2022-07-25T00:34:38;12.80;;;10.47;;
12790;SDS011;6459;42.678;23.310;2022-07-25T00:37:06;10.60;;;9.57;;
12790;SDS011;6459;42.678;23.310;2022-07-25T00:39:36;13.83;;;11.37;;
12790;SDS011;6459;42.678;23.310;2022-07-25T00:42:05;13.07;;;10.70;;
12790;SDS011;6459;42.678;23.310;2022-07-25T00:44:33;10.27;;;9.23;;
12790;SDS011;6459;42.678;23.310;2022-07-25T00:47:01;11.97;;;9.87;;
12790;SDS011;6459;42.678;23.310;2022-07-25T00:49:31;11.17;;;9.97;;
12790;SDS011;6459;42.678;23.310;2022-07-25T00:51:59;10.67;;;9.47;;
12790;SDS011;6459;42.678;23.310;2022-07-25T00:54:27;11.37;;;10.10;;
12790;SDS011;6459;42.678;23.310;2022-07-25T00:56:57;11.67;;;8.90;;
12790;SDS011;6459;42.678;23.310;2022-07-25T00:59:27;12.30;;;9.53;;
12790;SDS011;6459;42.678;23.310;2022-07-25T01:01:55;10.90;;;9.13;;
12790;SDS011;6459;42.678;23.310;2022-07-25T01:04:23;16.37;;;8.97;;
12790;SDS011;6459;42.678;23.310;2022-07-25T01:06:52;13.83;;;9.03;;
12790;SDS011;6459;42.678;23.310;2022-07-25T01:09:20;9.67;;;8.67;;
12790;SDS011;6459;42.678;23.310;2022-07-25T01:11:49;11.63;;;9.47;;
12790;SDS011;6459;42.678;23.310;2022-07-25T01:14:20;14.23;;;9.10;;
12790;SDS011;6459;42.678;23.310;2022-07-25T01:16:48;10.93;;;9.83;;
12790;SDS011;6459;42.678;23.310;2022-07-25T01:19:16;10.40;;;9.20;;
12790;SDS011;6459;42.678;23.310;2022-07-25T01:21:46;11.87;;;9.60;;
12790;SDS011;6459;42.678;23.310;2022-07-25T01:24:14;10.90;;;9.40;;
12790;SDS011;6459;42.678;23.310;2022-07-25T01:26:42;12.50;;;9.57;;
12790;SDS011;6459;42.678;23.310;2022-07-25T01:29:10;10.30;;;9.17;;
12790;SDS011;6459;42.678;23.310;2022-07-25T01:31:38;10.50;;;9.47;;
12790;SDS011;6459;42.678;23.310;2022-07-25T01:34:07;10.23;;;9.13;;
12790;SDS011;6459;42.678;23.310;2022-07-25T01:36:35;10.67;;;9.53;;
12790;SDS011;6459;42.678;23.310;2022-07-25T01:39:05;14.87;;;9.47;;
12790;SDS011;6459;42.678;23.310;2022-07-25T01:41:33;10.23;;;9.03;;
12790;SDS011;6459;42.678;23.310;2022-07-25T01:44:01;11.83;;;9.13;;
12790;SDS011;6459;42.678;23.310;2022-07-25T01:46:30;11.97;;;8.93;;
12790;SDS011;6459;42.678;23.310;2022-07-25T01:48:59;10.90;;;9.80;;
12790;SDS011;6459;42.678;23.310;2022-07-25T01:51:29;10.80;;;9.80;;
12790;SDS011;6459;42.678;23.310;2022-07-25T01:53:57;10.73;;;8.83;;
12790;SDS011;6459;42.678;23.310;2022-07-25T01:56:27;9.93;;;9.00;;
12790;SDS011;6459;42.678;23.310;2022-07-25T01:58:57;10.00;;;9.00;;
12790;SDS011;6459;42.678;23.310;2022-07-25T02:01:25;14.03;;;9.67;;
12790;SDS011;6459;42.678;23.310;2022-07-25T02:03:54;10.10;;;8.60;;
12790;SDS011;6459;42.678;23.310;2022-07-25T02:06:22;10.03;;;8.73;;
12790;SDS011;6459;42.678;23.310;2022-07-25T02:08:50;11.57;;;9.00;;
12790;SDS011;6459;42.678;23.310;2022-07-25T02:11:19;11.50;;;9.27;;
12790;SDS011;6459;42.678;23.310;2022-07-25T02:13:48;11.07;;;9.93;;
12790;SDS011;6459;42.678;23.310;2022-07-25T02:16:16;11.40;;;9.57;;
12790;SDS011;6459;42.678;23.310;2022-07-25T02:18:54;10.80;;;9.77;;
12790;SDS011;6459;42.678;23.310;2022-07-25T02:21:22;11.70;;;9.07;;
12790;SDS011;6459;42.678;23.310;2022-07-25T02:23:51;12.90;;;9.43;;
12790;SDS011;6459;42.678;23.310;2022-07-25T02:26:20;11.10;;;9.53;;
12790;SDS011;6459;42.678;23.310;2022-07-25T02:28:50;13.03;;;10.30;;
12790;SDS011;6459;42.678;23.310;2022-07-25T02:31:19;12.30;;;9.73;;
12790;SDS011;6459;42.678;23.310;2022-07-25T02:33:48;17.10;;;10.37;;
12790;SDS011;6459;42.678;23.310;2022-07-25T02:36:16;11.00;;;9.80;;
12790;SDS011;6459;42.678;23.310;2022-07-25T02:38:44;10.77;;;9.67;;
12790;SDS011;6459;42.678;23.310;2022-07-25T02:41:12;11.03;;;9.37;;
12790;SDS011;6459;42.678;23.310;2022-07-25T02:43:41;12.40;;;10.10;;
12790;SDS011;6459;42.678;23.310;2022-07-25T02:46:10;12.17;;;10.47;;
12790;SDS011;6459;42.678;23.310;2022-07-25T02:48:39;11.30;;;10.20;;
12790;SDS011;6459;42.678;23.310;2022-07-25T02:51:07;10.97;;;9.87;;
12790;SDS011;6459;42.678;23.310;2022-07-25T02:53:35;18.67;;;9.53;;
12790;SDS011;6459;42.678;23.310;2022-07-25T02:56:23;10.93;;;9.77;;
12790;SDS011;6459;42.678;23.310;2022-07-25T02:58:55;15.83;;;9.93;;
12790;SDS011;6459;42.678;23.310;2022-07-25T03:01:24;10.67;;;9.57;;
12790;SDS011;6459;42.678;23.310;2022-07-25T03:03:53;9.57;;;8.57;;
12790;SDS011;6459;42.678;23.310;2022-07-25T03:06:21;11.57;;;8.93;;
12790;SDS011;6459;42.678;23.310;2022-07-25T03:08:50;11.57;;;8.60;;
12790;SDS011;6459;42.678;23.310;2022-07-25T03:11:19;13.07;;;9.27;;
12790;SDS011;6459;42.678;23.310;2022-07-25T03:13:47;10.47;;;9.00;;
12790;SDS011;6459;42.678;23.310;2022-07-25T03:16:15;9.77;;;8.67;;
12790;SDS011;6459;42.678;23.310;2022-07-25T03:18:45;11.07;;;9.07;;
12790;SDS011;6459;42.678;23.310;2022-07-25T03:21:14;10.23;;;9.13;;
12790;SDS011;6459;42.678;23.310;2022-07-25T03:23:42;11.00;;;8.60;;
12790;SDS011;6459;42.678;23.310;2022-07-25T03:26:17;10.30;;;8.70;;
12790;SDS011;6459;42.678;23.310;2022-07-25T03:28:46;10.93;;;8.47;;
12790;SDS011;6459;42.678;23.310;2022-07-25T03:31:14;11.60;;;8.47;;
12790;SDS011;6459;42.678;23.310;2022-07-25T03:33:42;9.97;;;8.57;;
12790;SDS011;6459;42.678;23.310;2022-07-25T03:36:12;10.67;;;8.60;;
12790;SDS011;6459;42.678;23.310;2022-07-25T03:38:41;11.73;;;8.73;;
12790;SDS011;6459;42.678;23.310;2022-07-25T03:41:09;10.97;;;8.57;;
12790;SDS011;6459;42.678;23.310;2022-07-25T03:43:37;11.10;;;9.40;;
12790;SDS011;6459;42.678;23.310;2022-07-25T03:46:05;9.10;;;8.20;;
12790;SDS011;6459;42.678;23.310;2022-07-25T03:48:33;9.63;;;8.57;;
12790;SDS011;6459;42.678;23.310;2022-07-25T03:51:02;10.93;;;8.13;;
12790;SDS011;6459;42.678;23.310;2022-07-25T03:53:34;9.73;;;8.73;;
12790;SDS011;6459;42.678;23.310;2022-07-25T03:56:22;9.83;;;8.83;;
12790;SDS011;6459;42.678;23.310;2022-07-25T03:58:50;12.23;;;8.17;;
12790;SDS011;6459;42.678;23.310;2022-07-25T04:01:19;10.20;;;9.13;;
12790;SDS011;6459;42.678;23.310;2022-07-25T04:03:48;11.83;;;8.83;;
12790;SDS011;6459;42.678;23.310;2022-07-25T04:06:16;10.20;;;8.27;;
12790;SDS011;6459;42.678;23.310;2022-07-25T04:08:47;10.70;;;8.67;;
12790;SDS011;6459;42.678;23.310;2022-07-25T04:11:16;9.53;;;8.47;;
12790;SDS011;6459;42.678;23.310;2022-07-25T04:13:44;9.57;;;8.60;;
12790;SDS011;6459;42.678;23.310;2022-07-25T04:16:13;11.10;;;7.87;;
12790;SDS011;6459;42.678;23.310;2022-07-25T04:18:47;11.07;;;8.27;;
12790;SDS011;6459;42.678;23.310;2022-07-25T04:21:17;8.20;;;7.40;;
12790;SDS011;6459;42.678;23.310;2022-07-25T04:23:45;10.27;;;8.10;;
12790;SDS011;6459;42.678;23.310;2022-07-25T04:26:15;8.93;;;8.03;;
12790;SDS011;6459;42.678;23.310;2022-07-25T04:28:43;10.23;;;8.40;;
12790;SDS011;6459;42.678;23.310;2022-07-25T04:31:11;12.10;;;8.33;;
12790;SDS011;6459;42.678;23.310;2022-07-25T04:33:39;8.30;;;7.50;;
12790;SDS011;6459;42.678;23.310;2022-07-25T04:36:08;9.83;;;8.20;;
12790;SDS011;6459;42.678;23.310;2022-07-25T04:38:37;9.20;;;7.70;;
12790;SDS011;6459;42.678;23.310;2022-07-25T04:41:05;9.53;;;7.97;;
12790;SDS011;6459;42.678;23.310;2022-07-25T04:43:34;9.80;;;7.60;;
12790;SDS011;6459;42.678;23.310;2022-07-25T04:46:03;10.43;;;8.63;;
12790;SDS011;6459;42.678;23.310;2022-07-25T04:48:31;8.70;;;7.90;;
12790;SDS011;6459;42.678;23.310;2022-07-25T04:51:01;8.33;;;7.53;;
12790;SDS011;6459;42.678;23.310;2022-07-25T04:53:29;13.77;;;8.13;;
12790;SDS011;6459;42.678;23.310;2022-07-25T04:55:57;11.87;;;8.17;;
12790;SDS011;6459;42.678;23.310;2022-07-25T04:58:25;10.53;;;8.00;;
12790;SDS011;6459;42.678;23.310;2022-07-25T05:00:55;9.70;;;8.33;;
12790;SDS011;6459;42.678;23.310;2022-07-25T05:03:24;8.27;;;7.47;;
12790;SDS011;6459;42.678;23.310;2022-07-25T05:05:52;8.43;;;7.07;;
12790;SDS011;6459;42.678;23.310;2022-07-25T05:08:20;7.53;;;6.90;;
12790;SDS011;6459;42.678;23.310;2022-07-25T05:10:48;7.70;;;6.90;;
12790;SDS011;6459;42.678;23.310;2022-07-25T05:13:19;7.40;;;6.70;;
12790;SDS011;6459;42.678;23.310;2022-07-25T05:15:47;8.07;;;6.83;;
12790;SDS011;6459;42.678;23.310;2022-07-25T05:18:17;8.87;;;6.93;;
12790;SDS011;6459;42.678;23.310;2022-07-25T05:20:45;11.82;;;6.80;;
12790;SDS011;6459;42.678;23.310;2022-07-25T05:23:13;10.02;;;7.03;;
12790;SDS011;6459;42.678;23.310;2022-07-25T05:25:42;9.63;;;6.85;;
12790;SDS011;6459;42.678;23.310;2022-07-25T05:30:43;8.23;;;6.40;;
12790;SDS011;6459;42.678;23.310;2022-07-25T05:33:14;7.43;;;6.30;;
12790;SDS011;6459;42.678;23.310;2022-07-25T05:35:51;7.07;;;6.40;;
12790;SDS011;6459;42.678;23.310;2022-07-25T05:38:20;8.65;;;6.55;;
12790;SDS011;6459;42.678;23.310;2022-07-25T05:40:48;6.82;;;6.22;;
12790;SDS011;6459;42.678;23.310;2022-07-25T05:43:17;6.93;;;6.00;;
12790;SDS011;6459;42.678;23.310;2022-07-25T05:45:45;7.68;;;6.93;;
12790;SDS011;6459;42.678;23.310;2022-07-25T05:48:14;7.63;;;6.50;;
12790;SDS011;6459;42.678;23.310;2022-07-25T05:50:42;7.28;;;6.35;;
12790;SDS011;6459;42.678;23.310;2022-07-25T05:53:13;7.18;;;6.47;;
12790;SDS011;6459;42.678;23.310;2022-07-25T05:55:41;6.88;;;6.28;;
12790;SDS011;6459;42.678;23.310;2022-07-25T05:58:09;7.65;;;6.85;;
12790;SDS011;6459;42.678;23.310;2022-07-25T06:00:37;7.47;;;6.83;;
12790;SDS011;6459;42.678;23.310;2022-07-25T06:03:05;7.87;;;6.83;;
12790;SDS011;6459;42.678;23.310;2022-07-25T06:05:34;6.90;;;6.30;;
12790;SDS011;6459;42.678;23.310;2022-07-25T06:08:02;7.73;;;7.03;;
12790;SDS011;6459;42.678;23.310;2022-07-25T06:10:32;7.80;;;6.83;;
12790;SDS011;6459;42.678;23.310;2022-07-25T06:13:02;7.33;;;6.70;;
12790;SDS011;6459;42.678;23.310;2022-07-25T06:15:32;9.20;;;6.50;;
12790;SDS011;6459;42.678;23.310;2022-07-25T06:18:01;7.53;;;6.87;;
12790;SDS011;6459;42.678;23.310;2022-07-25T06:20:29;8.53;;;6.87;;
12790;SDS011;6459;42.678;23.310;2022-07-25T06:22:58;7.33;;;6.63;;
12790;SDS011;6459;42.678;23.310;2022-07-25T06:25:26;10.93;;;7.10;;
12790;SDS011;6459;42.678;23.310;2022-07-25T06:27:56;8.57;;;6.93;;
12790;SDS011;6459;42.678;23.310;2022-07-25T06:30:24;7.83;;;7.10;;
12790;SDS011;6459;42.678;23.310;2022-07-25T06:32:52;8.07;;;7.27;;
12790;SDS011;6459;42.678;23.310;2022-07-25T06:35:21;9.53;;;7.10;;
12790;SDS011;6459;42.678;23.310;2022-07-25T06:37:49;8.97;;;6.80;;
12790;SDS011;6459;42.678;23.310;2022-07-25T06:40:19;8.73;;;7.73;;
12790;SDS011;6459;42.678;23.310;2022-07-25T06:42:48;7.80;;;7.10;;
12790;SDS011;6459;42.678;23.310;2022-07-25T06:45:18;9.33;;;7.70;;
12790;SDS011;6459;42.678;23.310;2022-07-25T06:47:46;9.53;;;7.80;;
12790;SDS011;6459;42.678;23.310;2022-07-25T06:50:16;8.80;;;7.53;;
12790;SDS011;6459;42.678;23.310;2022-07-25T06:52:46;9.17;;;7.30;;
12790;SDS011;6459;42.678;23.310;2022-07-25T06:55:15;8.73;;;6.77;;
12790;SDS011;6459;42.678;23.310;2022-07-25T06:57:43;7.93;;;7.20;;
12790;SDS011;6459;42.678;23.310;2022-07-25T07:00:12;8.23;;;7.33;;
12790;SDS011;6459;42.678;23.310;2022-07-25T07:02:49;8.43;;;7.67;;
12790;SDS011;6459;42.678;23.310;2022-07-25T07:05:18;7.97;;;7.23;;
12790;SDS011;6459;42.678;23.310;2022-07-25T07:07:47;12.80;;;7.97;;
12790;SDS011;6459;42.678;23.310;2022-07-25T07:10:16;8.47;;;7.60;;
12790;SDS011;6459;42.678;23.310;2022-07-25T07:12:45;9.03;;;7.33;;
12790;SDS011;6459;42.678;23.310;2022-07-25T07:15:14;10.17;;;7.70;;
12790;SDS011;6459;42.678;23.310;2022-07-25T07:17:43;7.77;;;7.00;;
12790;SDS011;6459;42.678;23.310;2022-07-25T07:20:13;10.63;;;7.90;;
12790;SDS011;6459;42.678;23.310;2022-07-25T07:22:44;8.33;;;7.47;;
12790;SDS011;6459;42.678;23.310;2022-07-25T07:25:13;11.60;;;7.27;;
12790;SDS011;6459;42.678;23.310;2022-07-25T07:27:42;8.57;;;6.83;;
12790;SDS011;6459;42.678;23.310;2022-07-25T07:30:11;7.87;;;7.17;;
12790;SDS011;6459;42.678;23.310;2022-07-25T07:32:40;8.80;;;7.53;;
12790;SDS011;6459;42.678;23.310;2022-07-25T07:35:09;8.10;;;7.30;;
12790;SDS011;6459;42.678;23.310;2022-07-25T07:37:39;9.00;;;7.77;;
12790;SDS011;6459;42.678;23.310;2022-07-25T07:40:09;8.17;;;7.37;;
12790;SDS011;6459;42.678;23.310;2022-07-25T07:42:43;8.13;;;7.37;;
12790;SDS011;6459;42.678;23.310;2022-07-25T07:45:14;8.23;;;7.43;;
12790;SDS011;6459;42.678;23.310;2022-07-25T07:47:43;8.37;;;7.47;;
12790;SDS011;6459;42.678;23.310;2022-07-25T07:50:15;8.30;;;7.50;;
12790;SDS011;6459;42.678;23.310;2022-07-25T07:52:46;8.67;;;7.70;;
12790;SDS011;6459;42.678;23.310;2022-07-25T07:55:16;8.43;;;7.40;;
12790;SDS011;6459;42.678;23.310;2022-07-25T07:58:03;8.00;;;7.20;;
12790;SDS011;6459;42.678;23.310;2022-07-25T08:00:32;7.93;;;7.07;;
12790;SDS011;6459;42.678;23.310;2022-07-25T08:03:05;8.10;;;7.23;;
12790;SDS011;6459;42.678;23.310;2022-07-25T08:05:35;8.50;;;7.67;;
12790;SDS011;6459;42.678;23.310;2022-07-25T08:08:06;8.53;;;7.70;;
12790;SDS011;6459;42.678;23.310;2022-07-25T08:10:37;8.50;;;7.67;;
12790;SDS011;6459;42.678;23.310;2022-07-25T08:13:13;10.10;;;7.80;;
12790;SDS011;6459;42.678;23.310;2022-07-25T08:15:43;8.77;;;7.97;;
12790;SDS011;6459;42.678;23.310;2022-07-25T08:18:13;8.60;;;7.83;;
12790;SDS011;6459;42.678;23.310;2022-07-25T08:20:43;9.60;;;7.87;;
12790;SDS011;6459;42.678;23.310;2022-07-25T08:23:13;9.27;;;7.50;;
12790;SDS011;6459;42.678;23.310;2022-07-25T08:25:42;15.67;;;9.13;;
12790;SDS011;6459;42.678;23.310;2022-07-25T08:28:11;9.07;;;7.30;;
12790;SDS011;6459;42.678;23.310;2022-07-25T08:30:40;9.60;;;7.50;;
12790;SDS011;6459;42.678;23.310;2022-07-25T08:33:09;10.97;;;8.27;;
12790;SDS011;6459;42.678;23.310;2022-07-25T08:35:45;8.23;;;7.47;;
12790;SDS011;6459;42.678;23.310;2022-07-25T08:38:15;7.97;;;7.17;;
12790;SDS011;6459;42.678;23.310;2022-07-25T08:40:44;8.17;;;6.90;;
12790;SDS011;6459;42.678;23.310;2022-07-25T08:43:13;9.70;;;7.70;;
12790;SDS011;6459;42.678;23.310;2022-07-25T08:45:43;9.53;;;7.13;;
12790;SDS011;6459;42.678;23.310;2022-07-25T08:48:15;7.90;;;6.83;;
12790;SDS011;6459;42.678;23.310;2022-07-25T08:50:45;8.00;;;7.30;;
12790;SDS011;6459;42.678;23.310;2022-07-25T08:53:16;8.40;;;7.03;;
12790;SDS011;6459;42.678;23.310;2022-07-25T08:56:02;8.57;;;7.43;;
12790;SDS011;6459;42.678;23.310;2022-07-25T08:58:39;8.47;;;7.53;;
12790;SDS011;6459;42.678;23.310;2022-07-25T09:01:09;7.45;;;6.80;;
12790;SDS011;6459;42.678;23.310;2022-07-25T09:03:38;8.05;;;7.25;;
12790;SDS011;6459;42.678;23.310;2022-07-25T09:06:15;7.53;;;6.90;;
12790;SDS011;6459;42.678;23.310;2022-07-25T09:08:53;8.67;;;7.13;;
12790;SDS011;6459;42.678;23.310;2022-07-25T09:11:29;7.85;;;7.07;;
12790;SDS011;6459;42.678;23.310;2022-07-25T09:14:00;7.65;;;6.82;;
12790;SDS011;6459;42.678;23.310;2022-07-25T09:16:33;8.55;;;7.00;;
12790;SDS011;6459;42.678;23.310;2022-07-25T09:19:09;8.07;;;7.25;;
12790;SDS011;6459;42.678;23.310;2022-07-25T09:21:41;8.50;;;7.32;;
12790;SDS011;6459;42.678;23.310;2022-07-25T09:24:13;7.82;;;6.97;;
12790;SDS011;6459;42.678;23.310;2022-07-25T09:26:43;7.78;;;6.97;;
12790;SDS011;6459;42.678;23.310;2022-07-25T09:29:16;8.27;;;7.47;;
12790;SDS011;6459;42.678;23.310;2022-07-25T09:31:46;9.07;;;7.15;;
12790;SDS011;6459;42.678;23.310;2022-07-25T09:34:15;7.73;;;6.93;;
12790;SDS011;6459;42.678;23.310;2022-07-25T09:36:56;12.03;;;7.00;;
12790;SDS011;6459;42.678;23.310;2022-07-25T09:39:36;10.93;;;7.20;;
12790;SDS011;6459;42.678;23.310;2022-07-25T09:42:22;7.50;;;6.80;;
12790;SDS011;6459;42.678;23.310;2022-07-25T09:44:58;9.67;;;6.97;;
12790;SDS011;6459;42.678;23.310;2022-07-25T09:47:32;10.23;;;6.63;;
12790;SDS011;6459;42.678;23.310;2022-07-25T09:50:02;7.87;;;7.07;;
12790;SDS011;6459;42.678;23.310;2022-07-25T09:52:31;7.47;;;6.80;;
12790;SDS011;6459;42.678;23.310;2022-07-25T09:55:02;7.40;;;6.80;;
12790;SDS011;6459;42.678;23.310;2022-07-25T09:57:31;7.37;;;6.77;;
12790;SDS011;6459;42.678;23.310;2022-07-25T10:00:00;7.95;;;6.38;;
12790;SDS011;6459;42.678;23.310;2022-07-25T10:02:35;7.53;;;6.80;;
12790;SDS011;6459;42.678;23.310;2022-07-25T10:05:12;10.20;;;6.88;;
12790;SDS011;6459;42.678;23.310;2022-07-25T10:07:43;10.55;;;8.18;;
12790;SDS011;6459;42.678;23.310;2022-07-25T10:10:24;7.28;;;6.57;;
12790;SDS011;6459;42.678;23.310;2022-07-25T10:13:01;7.95;;;7.15;;
12790;SDS011;6459;42.678;23.310;2022-07-25T10:15:39;7.35;;;6.43;;
12790;SDS011;6459;42.678;23.310;2022-07-25T10:18:12;7.25;;;6.65;;
12790;SDS011;6459;42.678;23.310;2022-07-25T10:20:43;7.72;;;6.38;;
12790;SDS011;6459;42.678;23.310;2022-07-25T10:23:20;7.50;;;6.80;;
12790;SDS011;6459;42.678;23.310;2022-07-25T10:26:02;6.82;;;6.18;;
12790;SDS011;6459;42.678;23.310;2022-07-25T10:28:36;9.18;;;6.50;;
12790;SDS011;6459;42.678;23.310;2022-07-25T10:34:02;6.90;;;6.30;;
12790;SDS011;6459;42.678;23.310;2022-07-25T10:36:42;8.65;;;6.70;;
12790;SDS011;6459;42.678;23.310;2022-07-25T10:39:11;7.25;;;6.55;;
12790;SDS011;6459;42.678;23.310;2022-07-25T10:41:43;6.55;;;5.90;;
12790;SDS011;6459;42.678;23.310;2022-07-25T10:44:17;9.23;;;6.93;;
12790;SDS011;6459;42.678;23.310;2022-07-25T10:46:45;7.47;;;6.75;;
12790;SDS011;6459;42.678;23.310;2022-07-25T10:49:16;6.38;;;5.88;;
12790;SDS011;6459;42.678;23.310;2022-07-25T10:51:57;7.07;;;6.38;;
12790;SDS011;6459;42.678;23.310;2022-07-25T10:54:30;6.88;;;6.28;;
12790;SDS011;6459;42.678;23.310;2022-07-25T10:57:03;6.88;;;6.18;;
12790;SDS011;6459;42.678;23.310;2022-07-25T10:59:34;6.55;;;5.95;;
12790;SDS011;6459;42.678;23.310;2022-07-25T11:02:05;6.10;;;5.50;;
12790;SDS011;6459;42.678;23.310;2022-07-25T11:04:41;6.88;;;6.28;;
12790;SDS011;6459;42.678;23.310;2022-07-25T11:07:11;5.93;;;5.30;;
12790;SDS011;6459;42.678;23.310;2022-07-25T11:09:41;7.35;;;5.72;;
12790;SDS011;6459;42.678;23.310;2022-07-25T11:12:14;6.82;;;5.45;;
12790;SDS011;6459;42.678;23.310;2022-07-25T11:14:43;6.30;;;5.70;;
12790;SDS011;6459;42.678;23.310;2022-07-25T11:17:14;6.90;;;5.05;;
12790;SDS011;6459;42.678;23.310;2022-07-25T11:19:53;7.40;;;6.00;;
12790;SDS011;6459;42.678;23.310;2022-07-25T11:22:23;5.78;;;5.28;;
12790;SDS011;6459;42.678;23.310;2022-07-25T11:24:54;7.03;;;5.65;;
12790;SDS011;6459;42.678;23.310;2022-07-25T11:27:25;8.15;;;6.78;;
12790;SDS011;6459;42.678;23.310;2022-07-25T11:30:04;6.40;;;5.80;;
12790;SDS011;6459;42.678;23.310;2022-07-25T11:32:37;7.18;;;6.10;;
12790;SDS011;6459;42.678;23.310;2022-07-25T11:35:06;6.47;;;5.88;;
12790;SDS011;6459;42.678;23.310;2022-07-25T11:37:36;7.38;;;6.15;;
12790;SDS011;6459;42.678;23.310;2022-07-25T11:40:07;6.68;;;5.75;;
12790;SDS011;6459;42.678;23.310;2022-07-25T11:42:41;7.10;;;5.80;;
12790;SDS011;6459;42.678;23.310;2022-07-25T11:45:15;5.90;;;5.40;;
12790;SDS011;6459;42.678;23.310;2022-07-25T11:47:44;6.07;;;5.55;;
12790;SDS011;6459;42.678;23.310;2022-07-25T11:50:14;6.78;;;6.10;;
12790;SDS011;6459;42.678;23.310;2022-07-25T11:52:42;5.95;;;5.45;;
12790;SDS011;6459;42.678;23.310;2022-07-25T11:55:12;5.70;;;5.20;;
12790;SDS011;6459;42.678;23.310;2022-07-25T11:57:45;6.68;;;5.68;;
12790;SDS011;6459;42.678;23.310;2022-07-25T12:00:15;6.30;;;5.70;;
12790;SDS011;6459;42.678;23.310;2022-07-25T12:02:46;7.22;;;6.55;;
12790;SDS011;6459;42.678;23.310;2022-07-25T12:05:30;10.80;;;9.68;;
12790;SDS011;6459;42.678;23.310;2022-07-25T12:08:06;6.55;;;5.95;;
12790;SDS011;6459;42.678;23.310;2022-07-25T12:10:36;6.70;;;6.10;;
12790;SDS011;6459;42.678;23.310;2022-07-25T12:13:06;6.75;;;6.10;;
12790;SDS011;6459;42.678;23.310;2022-07-25T12:15:36;6.78;;;5.82;;
12790;SDS011;6459;42.678;23.310;2022-07-25T12:18:06;6.60;;;6.10;;
12790;SDS011;6459;42.678;23.310;2022-07-25T12:20:37;7.63;;;6.18;;
12790;SDS011;6459;42.678;23.310;2022-07-25T12:23:06;6.65;;;6.05;;
12790;SDS011;6459;42.678;23.310;2022-07-25T12:25:37;6.75;;;5.95;;
12790;SDS011;6459;42.678;23.310;2022-07-25T12:28:07;7.78;;;6.13;;
12790;SDS011;6459;42.678;23.310;2022-07-25T12:30:36;6.70;;;6.10;;
12790;SDS011;6459;42.678;23.310;2022-07-25T12:33:06;6.32;;;5.72;;
12790;SDS011;6459;42.678;23.310;2022-07-25T12:35:34;6.88;;;6.28;;
12790;SDS011;6459;42.678;23.310;2022-07-25T12:38:03;6.85;;;6.13;;
12790;SDS011;6459;42.678;23.310;2022-07-25T12:40:32;6.13;;;5.63;;
12790;SDS011;6459;42.678;23.310;2022-07-25T12:43:00;6.00;;;5.60;;
12790;SDS011;6459;42.678;23.310;2022-07-25T12:45:31;6.30;;;5.70;;
12790;SDS011;6459;42.678;23.310;2022-07-25T12:48:00;7.85;;;6.53;;
12790;SDS011;6459;42.678;23.310;2022-07-25T12:50:28;6.45;;;5.85;;
12790;SDS011;6459;42.678;23.310;2022-07-25T12:52:56;5.68;;;5.28;;
12790;SDS011;6459;42.678;23.310;2022-07-25T12:55:25;7.95;;;5.60;;
12790;SDS011;6459;42.678;23.310;2022-07-25T12:57:53;6.35;;;5.75;;
12790;SDS011;6459;42.678;23.310;2022-07-25T13:00:22;6.75;;;6.15;;
12790;SDS011;6459;42.678;23.310;2022-07-25T13:02:52;8.32;;;5.95;;
12790;SDS011;6459;42.678;23.310;2022-07-25T13:05:23;8.07;;;6.05;;
12790;SDS011;6459;42.678;23.310;2022-07-25T13:07:51;6.40;;;5.90;;
12790;SDS011;6459;42.678;23.310;2022-07-25T13:10:20;7.25;;;6.55;;
12790;SDS011;6459;42.678;23.310;2022-07-25T13:12:48;7.82;;;6.45;;
12790;SDS011;6459;42.678;23.310;2022-07-25T13:15:17;7.35;;;6.10;;
12790;SDS011;6459;42.678;23.310;2022-07-25T13:17:47;6.25;;;5.75;;
12790;SDS011;6459;42.678;23.310;2022-07-25T13:20:18;6.63;;;6.03;;
12790;SDS011;6459;42.678;23.310;2022-07-25T13:22:46;6.60;;;5.97;;
12790;SDS011;6459;42.678;23.310;2022-07-25T13:25:15;6.53;;;6.03;;
12790;SDS011;6459;42.678;23.310;2022-07-25T13:27:43;9.85;;;5.88;;
12790;SDS011;6459;42.678;23.310;2022-07-25T13:30:14;7.57;;;6.20;;
12790;SDS011;6459;42.678;23.310;2022-07-25T13:32:42;6.50;;;5.90;;
12790;SDS011;6459;42.678;23.310;2022-07-25T13:35:10;6.40;;;5.85;;
12790;SDS011;6459;42.678;23.310;2022-07-25T13:37:46;5.93;;;5.43;;
12790;SDS011;6459;42.678;23.310;2022-07-25T13:40:15;6.65;;;5.97;;
12790;SDS011;6459;42.678;23.310;2022-07-25T13:42:43;5.95;;;5.32;;
12790;SDS011;6459;42.678;23.310;2022-07-25T13:45:12;5.30;;;4.85;;
12790;SDS011;6459;42.678;23.310;2022-07-25T13:47:41;6.78;;;5.97;;
12790;SDS011;6459;42.678;23.310;2022-07-25T13:50:09;7.25;;;5.85;;
12790;SDS011;6459;42.678;23.310;2022-07-25T13:52:40;5.93;;;5.45;;
12790;SDS011;6459;42.678;23.310;2022-07-25T13:55:09;6.28;;;5.78;;
12790;SDS011;6459;42.678;23.310;2022-07-25T13:57:38;5.90;;;5.40;;
12790;SDS011;6459;42.678;23.310;2022-07-25T14:00:06;6.55;;;5.95;;
12790;SDS011;6459;42.678;23.310;2022-07-25T14:02:35;7.30;;;5.80;;
12790;SDS011;6459;42.678;23.310;2022-07-25T14:05:04;6.75;;;6.10;;
12790;SDS011;6459;42.678;23.310;2022-07-25T14:07:32;5.68;;;5.10;;
12790;SDS011;6459;42.678;23.310;2022-07-25T14:10:01;10.00;;;5.50;;
12790;SDS011;6459;42.678;23.310;2022-07-25T14:12:32;6.00;;;5.38;;
12790;SDS011;6459;42.678;23.310;2022-07-25T14:15:02;5.93;;;5.32;;
12790;SDS011;6459;42.678;23.310;2022-07-25T14:17:31;5.57;;;5.10;;
12790;SDS011;6459;42.678;23.310;2022-07-25T14:20:00;6.18;;;5.57;;
12790;SDS011;6459;42.678;23.310;2022-07-25T14:22:29;5.57;;;5.10;;
12790;SDS011;6459;42.678;23.310;2022-07-25T14:24:57;7.70;;;5.40;;
12790;SDS011;6459;42.678;23.310;2022-07-25T14:27:25;5.65;;;5.15;;
12790;SDS011;6459;42.678;23.310;2022-07-25T14:29:55;6.97;;;5.20;;
12790;SDS011;6459;42.678;23.310;2022-07-25T14:32:23;5.80;;;5.20;;
12790;SDS011;6459;42.678;23.310;2022-07-25T14:34:52;6.10;;;5.50;;
12790;SDS011;6459;42.678;23.310;2022-07-25T14:37:20;7.03;;;5.38;;
12790;SDS011;6459;42.678;23.310;2022-07-25T14:39:49;6.20;;;5.60;;
12790;SDS011;6459;42.678;23.310;2022-07-25T14:42:18;5.60;;;5.20;;
12790;SDS011;6459;42.678;23.310;2022-07-25T14:44:47;5.97;;;5.30;;
12790;SDS011;6459;42.678;23.310;2022-07-25T14:47:18;5.22;;;4.78;;
12790;SDS011;6459;42.678;23.310;2022-07-25T14:49:47;8.50;;;7.05;;
12790;SDS011;6459;42.678;23.310;2022-07-25T14:52:16;8.40;;;7.60;;
12790;SDS011;6459;42.678;23.310;2022-07-25T14:54:45;9.20;;;5.93;;
12790;SDS011;6459;42.678;23.310;2022-07-25T14:57:13;6.25;;;5.75;;
12790;SDS011;6459;42.678;23.310;2022-07-25T14:59:41;7.68;;;5.50;;
12790;SDS011;6459;42.678;23.310;2022-07-25T15:02:10;6.15;;;5.63;;
12790;SDS011;6459;42.678;23.310;2022-07-25T15:04:40;5.40;;;4.90;;
12790;SDS011;6459;42.678;23.310;2022-07-25T15:07:09;5.43;;;5.00;;